Time;durP1;ratioP1;P1;durP2;ratioP2;P2;SDS_P1;SDS_P2;PMS_P1;PMS_P2;Temp;Humidity;BMP_temperature;BMP_pressure;BME280_temperature;BME280_humidity;BME280_pressure;Samples;Min_cycle;Max_cycle;Signal;HPM_P1;HPM_P2
2021/09/04 00:00:00;;;;;;;3.23;2.27;;;;;;;22.71;52.67;97619.94;5011505;28;20336;-66
2021/09/04 00:02:26;;;;;;;4.40;2.30;;;;;;;22.70;52.83;97623.34;5010505;28;20720;-64
2021/09/04 00:04:53;;;;;;;3.10;2.50;;;;;;;22.71;53.07;97622.50;5011259;28;20214;-66
2021/09/04 00:07:20;;;;;;;2.30;2.00;;;;;;;22.58;52.30;97596.53;5011021;28;20237;-66
2021/09/04 00:09:47;;;;;;;3.03;2.13;;;;;;;22.72;51.59;97615.69;5014061;28;20326;-65
2021/09/04 00:12:13;;;;;;;4.13;2.43;;;;;;;22.72;52.42;97615.69;5010379;28;20250;-66
2021/09/04 00:14:40;;;;;;;4.00;2.10;;;;;;;22.71;52.59;97608.84;5014139;28;20597;-66
2021/09/04 00:17:06;;;;;;;2.80;2.23;;;;;;;22.71;52.86;97608.84;5008601;28;20647;-66
2021/09/04 00:19:33;;;;;;;2.37;2.00;;;;;;;22.71;53.30;97608.84;5014882;28;20223;-65
2021/09/04 00:21:59;;;;;;;3.47;2.10;;;;;;;22.44;52.63;97559.41;5013088;28;20925;-66
2021/09/04 00:24:26;;;;;;;3.40;2.00;;;;;;;22.58;52.36;97576.91;5013648;28;20263;-65
2021/09/04 00:26:53;;;;;;;2.20;2.00;;;;;;;22.70;52.32;97604.53;5017383;28;20740;-66
2021/09/04 00:29:19;;;;;;;3.20;2.20;;;;;;;22.70;52.65;97601.97;5016045;28;20678;-66
2021/09/04 00:31:46;;;;;;;2.97;2.23;;;;;;;22.68;52.49;97604.47;5009843;28;20312;-66
2021/09/04 00:34:12;;;;;;;3.13;2.30;;;;;;;22.70;53.61;97604.53;5008251;28;20735;-66
2021/09/04 00:36:39;;;;;;;3.47;2.20;;;;;;;22.70;53.14;97607.09;5009271;28;20301;-66
2021/09/04 00:39:06;;;;;;;2.73;2.00;;;;;;;22.70;52.77;97596.84;5012011;28;20202;-66
2021/09/04 00:41:34;;;;;;;2.83;1.87;;;;;;;22.70;52.00;97607.97;5008959;28;20651;-66
2021/09/04 00:44:02;;;;;;;2.53;2.00;;;;;;;22.70;52.51;97607.09;5007578;28;20260;-66
2021/09/04 00:46:29;;;;;;;4.57;2.33;;;;;;;22.65;52.74;97593.31;5006901;28;20585;-66
2021/09/04 00:48:56;;;;;;;2.63;2.10;;;;;;;22.70;53.05;97610.53;5010857;28;20244;-65
2021/09/04 00:51:23;;;;;;;2.70;2.27;;;;;;;22.70;53.40;97599.41;5008316;28;20325;-66
2021/09/04 00:53:50;;;;;;;3.70;2.13;;;;;;;22.71;52.79;97603.72;5006026;28;20234;-66
2021/09/04 00:56:17;;;;;;;2.20;2.00;;;;;;;22.71;52.11;97601.16;5009882;28;20241;-66
2021/09/04 00:58:43;;;;;;;2.83;1.97;;;;;;;22.71;52.17;97602.00;5010943;28;20297;-66
2021/09/04 01:01:10;;;;;;;3.07;2.10;;;;;;;22.71;52.77;97601.16;4996907;28;20292;-66
2021/09/04 01:03:37;;;;;;;3.83;2.27;;;;;;;22.70;52.67;97595.16;5007144;28;20226;-66
2021/09/04 01:06:03;;;;;;;3.63;2.03;;;;;;;22.57;53.29;97576.88;5008095;28;20297;-66
2021/09/04 01:08:30;;;;;;;2.77;2.23;;;;;;;22.70;53.18;97605.41;5006000;28;20194;-66
2021/09/04 01:10:57;;;;;;;2.47;2.00;;;;;;;22.37;52.39;97543.00;5010629;28;20293;-66
2021/09/04 01:13:23;;;;;;;2.90;2.03;;;;;;;22.70;51.97;97597.72;5010201;28;20249;-66
2021/09/04 01:15:50;;;;;;;2.87;2.00;;;;;;;22.71;51.81;97601.16;5007129;28;20230;-66
2021/09/04 01:18:16;;;;;;;2.60;2.20;;;;;;;21.86;52.57;97457.16;5009237;28;20638;-66
2021/09/04 01:20:44;;;;;;;3.30;2.00;;;;;;;22.56;52.90;97577.69;5016413;28;20206;-66
2021/09/04 01:23:10;;;;;;;2.50;2.30;;;;;;;22.55;53.11;97561.47;5014165;28;20343;-66
2021/09/04 01:25:37;;;;;;;2.10;1.90;;;;;;;22.68;52.49;97593.38;5008774;28;20260;-66
2021/09/04 01:28:04;;;;;;;2.30;2.10;;;;;;;22.62;52.07;97578.69;5004214;28;20296;-66
2021/09/04 01:30:30;;;;;;;3.37;2.17;;;;;;;22.34;51.51;97526.69;5007323;28;20671;-66
2021/09/04 01:32:57;;;;;;;2.20;2.00;;;;;;;22.50;51.23;97557.03;5010282;28;20326;-66
2021/09/04 01:35:24;;;;;;;2.43;1.97;;;;;;;22.68;51.91;97591.69;5012442;28;20293;-66
2021/09/04 01:37:51;;;;;;;2.23;1.90;;;;;;;22.68;52.27;97586.56;5010972;28;20234;-66
2021/09/04 01:40:18;;;;;;;2.87;2.20;;;;;;;22.66;52.51;97577.97;5019459;28;20206;-65
2021/09/04 01:42:45;;;;;;;1.93;1.70;;;;;;;21.63;52.56;97402.81;5009024;28;20345;-66
2021/09/04 01:45:12;;;;;;;2.50;2.13;;;;;;;22.69;52.07;97578.06;5002521;28;20328;-66
2021/09/04 01:47:38;;;;;;;1.93;1.83;;;;;;;22.69;51.29;97574.63;5009754;28;20651;-66
2021/09/04 01:50:09;;;;;;;3.50;1.90;;;;;;;21.59;51.98;97389.91;5006645;28;20240;-66
2021/09/04 01:52:36;;;;;;;1.93;1.80;;;;;;;22.58;52.34;97560.66;5021024;28;20370;-66
2021/09/04 01:55:04;;;;;;;2.50;2.17;;;;;;;22.69;52.69;97579.75;4991463;28;20255;-66
2021/09/04 01:57:31;;;;;;;1.80;1.70;;;;;;;22.69;52.44;97577.19;5009254;28;20612;-65
2021/09/04 01:59:58;;;;;;;2.57;1.97;;;;;;;22.67;52.00;97577.13;5011395;28;20197;-66
2021/09/04 02:02:24;;;;;;;1.90;1.80;;;;;;;22.70;51.58;97576.34;5014006;28;20287;-66
2021/09/04 02:04:51;;;;;;;2.20;2.00;;;;;;;22.62;52.23;97565.06;5011330;28;20230;-66
2021/09/04 02:07:18;;;;;;;3.43;1.80;;;;;;;22.70;52.11;97586.59;5013409;28;20316;-66
2021/09/04 02:09:45;;;;;;;1.70;1.60;;;;;;;22.67;52.58;97572.00;5016736;28;20206;-66
2021/09/04 02:12:11;;;;;;;2.23;2.03;;;;;;;22.67;52.64;97571.13;5011850;28;20255;-65
2021/09/04 02:14:38;;;;;;;2.13;1.93;;;;;;;22.68;52.42;97572.91;5013616;28;20315;-66
2021/09/04 02:17:04;;;;;;;2.37;2.17;;;;;;;22.68;51.69;97576.31;5012774;28;20224;-66
2021/09/04 02:19:31;;;;;;;2.43;1.90;;;;;;;22.63;51.25;97566.78;5018405;28;20300;-66
2021/09/04 02:21:57;;;;;;;1.70;1.60;;;;;;;22.71;50.33;97567.84;5016044;28;20312;-66
2021/09/04 02:24:24;;;;;;;2.00;1.90;;;;;;;22.70;49.89;97576.34;5017554;28;20260;-66
2021/09/04 02:26:51;;;;;;;2.73;2.13;;;;;;;22.69;50.99;97572.06;5012571;28;20289;-65
2021/09/04 02:29:17;;;;;;;1.97;1.80;;;;;;;22.68;51.17;97568.63;5009181;28;20237;-66
2021/09/04 02:31:44;;;;;;;2.33;1.93;;;;;;;22.66;51.61;97571.97;5018546;28;20225;-66
2021/09/04 02:34:10;;;;;;;2.50;2.03;;;;;;;22.56;51.51;97555.50;5013468;28;20285;-66
2021/09/04 02:36:37;;;;;;;2.70;2.23;;;;;;;22.65;51.73;97567.69;5011172;28;20646;-65
2021/09/04 02:39:04;;;;;;;2.10;1.90;;;;;;;22.66;51.11;97570.28;5014859;28;20238;-66
2021/09/04 02:41:31;;;;;;;2.17;1.90;;;;;;;22.67;50.63;97571.13;5014385;28;20274;-66
2021/09/04 02:43:57;;;;;;;2.40;2.20;;;;;;;22.67;49.39;97571.13;5017051;28;20333;-66
2021/09/04 02:46:24;;;;;;;2.00;1.90;;;;;;;22.67;50.20;97572.00;5011140;28;20237;-66
2021/09/04 02:48:50;;;;;;;2.60;1.90;;;;;;;22.27;51.23;97510.34;5013198;28;20404;-65
2021/09/04 02:51:17;;;;;;;1.90;1.70;;;;;;;22.68;51.35;97571.19;5016101;28;20240;-66
2021/09/04 02:53:43;;;;;;;2.00;1.80;;;;;;;22.67;51.72;97566.00;5018457;28;20649;-66
2021/09/04 02:56:10;;;;;;;2.30;1.80;;;;;;;22.69;51.38;97559.25;5011605;28;20237;-65
2021/09/04 02:58:37;;;;;;;2.07;1.87;;;;;;;22.60;51.00;97546.22;5009871;28;20313;-66
2021/09/04 03:01:03;;;;;;;2.07;1.90;;;;;;;22.70;51.92;97555.84;5012092;28;20319;-65
2021/09/04 03:03:30;;;;;;;2.53;1.70;;;;;;;22.59;51.84;97541.91;5017594;28;20621;-65
2021/09/04 03:05:58;;;;;;;2.03;1.83;;;;;;;21.77;52.11;97400.66;5013579;28;20201;-66
2021/09/04 03:08:25;;;;;;;2.00;1.73;;;;;;;22.70;52.35;97561.84;5007152;28;20210;-65
2021/09/04 03:10:52;;;;;;;2.00;1.80;;;;;;;22.71;51.99;97566.13;5013165;28;20665;-66
2021/09/04 03:13:18;;;;;;;1.93;1.77;;;;;;;22.72;51.72;97559.31;5011336;28;20222;-66
2021/09/04 03:15:45;;;;;;;2.27;2.07;;;;;;;22.72;51.96;97570.44;5012924;28;20647;-65
2021/09/04 03:18:13;;;;;;;1.93;1.80;;;;;;;22.15;52.22;97463.94;5011257;28;20206;-66
2021/09/04 03:20:40;;;;;;;2.00;1.90;;;;;;;22.72;52.43;97561.88;5016878;28;20248;-66
2021/09/04 03:23:06;;;;;;;3.13;2.17;;;;;;;22.60;52.93;97533.41;5016225;28;20296;-66
2021/09/04 03:25:33;;;;;;;2.40;2.20;;;;;;;22.73;51.80;97551.66;5017945;28;20661;-65
2021/09/04 03:27:59;;;;;;;1.87;1.60;;;;;;;22.68;51.84;97545.56;5017497;28;20607;-66
2021/09/04 03:30:26;;;;;;;2.57;1.83;;;;;;;21.76;52.14;97377.59;5010131;28;20329;-66
2021/09/04 03:32:53;;;;;;;3.83;1.90;;;;;;;22.75;52.30;97560.28;5012801;28;20316;-66
2021/09/04 03:35:19;;;;;;;1.70;1.60;;;;;;;22.40;52.38;97491.00;5010848;28;20199;-66
2021/09/04 03:37:47;;;;;;;2.07;1.87;;;;;;;22.76;52.57;97556.00;5011538;28;20245;-65
2021/09/04 03:40:13;;;;;;;1.80;1.70;;;;;;;22.71;51.79;97545.63;5019774;28;20237;-66
2021/09/04 03:42:40;;;;;;;2.20;2.00;;;;;;;22.76;51.88;97548.31;5010876;28;20261;-66
2021/09/04 03:45:07;;;;;;;1.97;1.80;;;;;;;22.77;52.09;97544.94;5010632;28;20262;-66
2021/09/04 03:47:34;;;;;;;2.20;2.00;;;;;;;21.68;52.35;97364.56;5011078;28;20955;-66
2021/09/04 03:50:01;;;;;;;2.00;1.80;;;;;;;22.78;52.71;97554.34;5019682;28;20252;-65
2021/09/04 03:52:27;;;;;;;1.93;1.83;;;;;;;22.78;52.52;97559.47;5013493;28;20603;-65
2021/09/04 03:54:54;;;;;;;2.20;1.90;;;;;;;22.78;51.70;97555.22;5010834;28;20225;-66
2021/09/04 03:57:21;;;;;;;1.77;1.67;;;;;;;22.51;52.17;97505.00;5010698;28;20247;-65
2021/09/04 03:59:47;;;;;;;1.93;1.83;;;;;;;19.32;52.07;96955.44;5011164;28;20208;-66
2021/09/04 04:02:14;;;;;;;2.60;2.10;;;;;;;22.78;52.44;97555.22;5010641;28;20276;-65
2021/09/04 04:04:41;;;;;;;2.20;2.00;;;;;;;21.91;52.53;97395.88;5010819;28;20229;-66
2021/09/04 04:07:08;;;;;;;2.00;1.90;;;;;;;22.79;52.28;97559.50;5010513;28;20263;-66
2021/09/04 04:09:35;;;;;;;1.90;1.80;;;;;;;22.80;51.42;97552.72;5011095;28;20693;-66
2021/09/04 04:12:01;;;;;;;1.90;1.80;;;;;;;;;;5011862;28;20262;-66
2021/09/04 04:14:28;;;;;;;2.10;1.90;;;;;;;22.61;52.06;97523.19;5009500;28;20194;-66
2021/09/04 04:16:54;;;;;;;2.27;2.07;;;;;;;22.81;52.29;97551.88;5012929;28;20233;-66
2021/09/04 04:19:21;;;;;;;3.93;2.20;;;;;;;22.81;52.17;97555.31;5007333;28;20625;-66
2021/09/04 04:21:48;;;;;;;2.00;1.90;;;;;;;22.18;51.50;97447.78;5133917;22;20230;-69
2021/09/04 04:24:14;;;;;;;2.10;1.90;;;;;;;22.66;51.67;97525.88;4957658;28;20258;-69
2021/09/04 04:26:41;;;;;;;2.20;2.00;;;;;;;22.81;52.22;97557.88;4998869;28;20238;-69
2021/09/04 04:29:07;;;;;;;2.23;2.03;;;;;;;22.81;52.30;97557.00;4986149;28;20295;-69
2021/09/04 04:31:35;;;;;;;2.23;2.03;;;;;;;22.74;52.22;97544.88;4985781;28;20210;-69
2021/09/04 04:34:01;;;;;;;1.70;1.60;;;;;;;22.82;51.84;97556.16;4977421;28;20203;-68
2021/09/04 04:36:28;;;;;;;3.90;2.40;;;;;;;22.27;51.88;97461.69;4975122;28;20243;-69
2021/09/04 04:38:54;;;;;;;5.00;2.93;;;;;;;22.30;53.37;97472.00;4979357;28;20245;-69
2021/09/04 04:41:21;;;;;;;5.47;3.80;;;;;;;22.84;54.29;97557.06;4975624;28;20246;-69
2021/09/04 04:43:48;;;;;;;4.77;3.60;;;;;;;22.74;55.30;97540.59;4977749;28;20266;-69
2021/09/04 04:46:14;;;;;;;3.80;3.40;;;;;;;22.78;56.19;97554.34;4972098;28;20242;-69
2021/09/04 04:48:41;;;;;;;4.00;3.47;;;;;;;22.59;56.55;97518.88;4978986;28;20207;-69
2021/09/04 04:51:08;;;;;;;4.30;3.90;;;;;;;22.70;56.92;97530.22;4976325;28;20760;-69
2021/09/04 04:53:34;;;;;;;4.57;3.90;;;;;;;22.85;57.27;97559.66;4974163;28;20288;-69
2021/09/04 04:56:02;;;;;;;4.40;3.60;;;;;;;22.01;57.54;97419.19;4983912;28;20285;-69
2021/09/04 04:58:29;;;;;;;3.80;3.50;;;;;;;22.85;57.69;97566.47;4979904;28;20211;-69
2021/09/04 05:00:55;;;;;;;4.33;3.93;;;;;;;22.52;57.93;97514.41;4977957;28;20242;-70
2021/09/04 05:03:22;;;;;;;4.10;3.70;;;;;;;22.84;58.20;97572.44;4974493;28;20708;-69
2021/09/04 05:05:50;;;;;;;6.50;4.03;;;;;;;22.82;58.29;97566.41;4979547;28;20318;-69
2021/09/04 05:08:16;;;;;;;4.60;3.83;;;;;;;22.81;58.34;97572.38;4976289;28;20207;-70
2021/09/04 05:10:43;;;;;;;4.53;3.77;;;;;;;22.40;58.69;97507.25;4975929;28;20274;-70
2021/09/04 05:13:09;;;;;;;4.70;4.30;;;;;;;22.79;58.72;97574.88;4979932;28;20645;-69
2021/09/04 05:15:36;;;;;;;4.23;3.83;;;;;;;22.30;58.87;97483.94;4979602;28;20290;-68
2021/09/04 05:18:03;;;;;;;4.40;3.90;;;;;;;22.71;59.23;97557.59;4979827;28;20253;-70
2021/09/04 05:20:29;;;;;;;4.50;4.10;;;;;;;22.77;59.51;97565.44;4971672;28;20243;-69
2021/09/04 05:22:56;;;;;;;4.20;3.80;;;;;;;22.66;59.25;97548.91;4983084;28;20775;-69
2021/09/04 05:25:23;;;;;;;4.27;3.83;;;;;;;22.65;59.35;97563.41;4980684;28;20736;-69
2021/09/04 05:27:49;;;;;;;4.63;3.90;;;;;;;22.61;59.51;97550.50;4970473;28;20231;-69
2021/09/04 05:30:16;;;;;;;5.13;4.13;;;;;;;22.71;59.65;97568.69;4981303;28;20286;-69
2021/09/04 05:32:42;;;;;;;6.97;4.13;;;;;;;22.36;60.03;97519.94;4979406;28;20227;-69
2021/09/04 05:35:09;;;;;;;4.93;4.43;;;;;;;22.69;59.77;97574.63;4982141;28;20200;-69
2021/09/04 05:37:36;;;;;;;5.13;4.23;;;;;;;22.62;59.82;97565.91;4978236;28;20234;-69
2021/09/04 05:40:03;;;;;;;4.90;4.40;;;;;;;22.59;59.82;97558.13;4972245;28;20208;-69
2021/09/04 05:42:29;;;;;;;5.77;4.93;;;;;;;22.66;59.05;97571.97;4961285;28;20265;-70
2021/09/04 05:44:56;;;;;;;8.43;5.33;;;;;;;22.59;58.92;97559.84;4978781;28;20926;-70
2021/09/04 05:47:23;;;;;;;5.87;5.30;;;;;;;22.62;59.32;97571.03;4990661;28;20202;-70
2021/09/04 05:49:49;;;;;;;6.13;4.77;;;;;;;22.61;59.72;97571.84;4988204;28;20752;-69
2021/09/04 05:52:16;;;;;;;5.63;5.00;;;;;;;22.45;59.65;97551.78;4989891;28;20739;-69
2021/09/04 05:54:42;;;;;;;5.90;5.20;;;;;;;22.50;59.80;97554.47;4971879;28;20912;-69
2021/09/04 05:57:09;;;;;;;5.70;5.20;;;;;;;22.59;60.07;97585.47;4987284;28;20211;-69
2021/09/04 05:59:35;;;;;;;7.97;5.57;;;;;;;22.51;60.31;97561.34;4988792;28;20230;-69
2021/09/04 06:02:02;;;;;;;6.90;5.33;;;;;;;22.25;60.41;97527.34;4979442;28;20271;-69
2021/09/04 06:04:29;;;;;;;6.00;5.40;;;;;;;22.55;60.33;97578.50;4986380;28;20229;-69
2021/09/04 06:06:56;;;;;;;10.20;6.60;;;;;;;22.56;60.53;97577.69;4988349;28;20234;-70
2021/09/04 06:09:22;;;;;;;6.23;5.60;;;;;;;22.55;60.83;97581.06;4986767;28;20207;-69
2021/09/04 06:11:49;;;;;;;6.80;6.10;;;;;;;22.44;60.69;97567.09;4988389;28;20285;-69
2021/09/04 06:14:16;;;;;;;5.83;5.33;;;;;;;22.48;60.82;97576.59;4972696;28;20291;-69
2021/09/04 06:16:42;;;;;;;6.40;5.80;;;;;;;22.38;60.81;97567.78;4989444;28;20237;-70
2021/09/04 06:19:09;;;;;;;6.67;5.70;;;;;;;22.46;61.11;97584.22;4970838;28;20689;-69
2021/09/04 06:21:35;;;;;;;7.10;6.17;;;;;;;22.44;61.16;97591.00;4988372;28;20241;-69
2021/09/04 06:24:02;;;;;;;6.03;5.43;;;;;;;22.29;61.47;97567.53;4985145;28;20686;-69
2021/09/04 06:26:29;;;;;;;6.73;5.60;;;;;;;22.43;61.41;97590.97;4982002;28;20306;-68
2021/09/04 06:28:55;;;;;;;6.97;6.27;;;;;;;21.46;61.27;97424.47;4982335;28;20851;-69
2021/09/04 06:31:22;;;;;;;11.40;7.07;;;;;;;22.42;61.41;97589.22;4981254;28;20633;-69
2021/09/04 06:33:48;;;;;;;8.17;6.63;;;;;;;22.41;61.27;97588.34;4983257;28;20222;-69
2021/09/04 06:36:15;;;;;;;7.43;6.60;;;;;;;22.32;61.43;97572.75;4983110;28;20234;-69
2021/09/04 06:38:42;;;;;;;7.57;6.87;;;;;;;22.39;61.47;97584.03;4987079;28;20664;-69
2021/09/04 06:41:08;;;;;;;10.23;6.87;;;;;;;22.38;61.56;97583.16;4979250;28;20274;-69
2021/09/04 06:43:35;;;;;;;8.70;7.10;;;;;;;22.29;62.13;97569.25;4979404;28;20306;-69
2021/09/04 06:46:01;;;;;;;8.67;6.90;;;;;;;22.35;62.04;97580.50;4980733;28;20306;-69
2021/09/04 06:48:28;;;;;;;9.33;6.87;;;;;;;22.35;62.00;97583.06;4987937;28;20650;-69
2021/09/04 06:50:55;;;;;;;9.50;7.30;;;;;;;22.33;62.24;97576.19;4987421;28;20688;-69
2021/09/04 06:53:21;;;;;;;8.03;7.13;;;;;;;22.31;62.00;97582.94;4983604;28;20258;-69
2021/09/04 06:55:48;;;;;;;7.60;6.67;;;;;;;22.21;62.52;97570.72;4985390;28;20287;-69
2021/09/04 06:58:14;;;;;;;8.73;7.63;;;;;;;22.28;62.46;97591.41;4985863;28;20230;-69
2021/09/04 07:00:41;;;;;;;10.50;7.60;;;;;;;22.27;62.82;97588.81;4989015;28;20526;-68
2021/09/04 07:03:08;;;;;;;10.77;7.50;;;;;;;22.12;63.24;97575.59;4985910;28;20712;-69
2021/09/04 07:05:35;;;;;;;9.83;7.33;;;;;;;22.24;63.86;97598.97;4980868;28;20311;-69
2021/09/04 07:08:01;;;;;;;9.27;7.57;;;;;;;22.18;64.02;97596.25;4982241;28;20234;-69
2021/09/04 07:10:28;;;;;;;10.03;7.40;;;;;;;22.08;64.17;97584.03;4986131;28;20210;-69
2021/09/04 07:12:55;;;;;;;9.53;6.87;;;;;;;22.20;64.38;97602.28;4977994;28;20810;-69
2021/09/04 07:15:22;;;;;;;14.27;7.17;;;;;;;22.18;64.76;97601.38;4981278;28;20234;-69
2021/09/04 07:17:48;;;;;;;10.23;7.30;;;;;;;22.17;65.20;97604.75;4985791;28;20214;-70
2021/09/04 07:20:15;;;;;;;9.83;7.00;;;;;;;22.05;65.34;97578.81;4975060;28;20242;-69
2021/09/04 07:22:41;;;;;;;8.70;6.57;;;;;;;;;;4977291;28;20277;-69
2021/09/04 07:25:08;;;;;;;9.70;7.10;;;;;;;22.15;65.40;97611.53;4973215;28;20259;-70
2021/09/04 07:27:35;;;;;;;9.37;7.53;;;;;;;22.14;65.39;97614.91;4976377;28;20203;-70
2021/09/04 07:30:01;;;;;;;8.70;7.80;;;;;;;22.12;65.52;97612.31;4983308;28;20241;-69
2021/09/04 07:32:28;;;;;;;10.77;6.60;;;;;;;22.06;65.42;97601.91;4985436;28;20226;-70
2021/09/04 07:34:57;;;;;;;8.23;7.27;;;;;;;22.07;65.51;97612.97;4985186;28;20249;-69
2021/09/04 07:37:24;;;;;;;10.40;6.83;;;;;;;;;;4987792;28;20681;-69
2021/09/04 07:39:50;;;;;;;10.40;6.67;;;;;;;22.06;65.40;97617.25;4979358;28;20239;-68
2021/09/04 07:42:17;;;;;;;9.43;6.83;;;;;;;22.05;65.46;97614.66;4982618;28;20245;-70
2021/09/04 07:44:44;;;;;;;11.77;6.73;;;;;;;22.04;65.49;97616.34;4974822;28;20208;-69
2021/09/04 07:47:11;;;;;;;7.07;6.37;;;;;;;22.04;65.62;97612.91;4976213;28;20211;-69
2021/09/04 07:49:37;;;;;;;7.87;6.30;;;;;;;22.05;65.25;97619.78;4984620;28;20285;-68
2021/09/04 07:52:04;;;;;;;8.63;6.33;;;;;;;22.05;65.46;97622.34;4974042;28;20259;-69
2021/09/04 07:54:30;;;;;;;7.03;6.33;;;;;;;21.76;65.19;97564.31;4985775;28;20203;-69
2021/09/04 07:56:57;;;;;;;8.70;5.97;;;;;;;22.06;65.25;97624.06;4973622;28;20235;-69
2021/09/04 07:59:23;;;;;;;7.47;6.33;;;;;;;22.07;64.83;97615.53;4979456;28;20253;-68
2021/09/04 08:01:50;;;;;;;7.97;5.43;;;;;;;22.06;65.17;97614.69;4983818;28;20318;-69
2021/09/04 08:04:17;;;;;;;6.63;5.93;;;;;;;;;;4979756;28;20210;-68
2021/09/04 08:06:44;;;;;;;9.20;5.87;;;;;;;22.08;64.94;97607.91;4987164;28;20675;-69
2021/09/04 08:09:10;;;;;;;6.80;6.10;;;;;;;22.09;65.63;97614.78;4984564;28;20227;-69
2021/09/04 08:11:37;;;;;;;10.23;6.87;;;;;;;22.09;66.82;97614.78;4985422;28;20291;-69
2021/09/04 08:14:03;;;;;;;8.13;7.23;;;;;;;22.10;67.07;97613.06;4982657;28;20243;-68
2021/09/04 08:16:30;;;;;;;9.03;7.00;;;;;;;22.12;67.52;97621.66;4981023;28;20298;-68
2021/09/04 08:18:57;;;;;;;7.43;6.47;;;;;;;22.11;67.99;97618.22;4972077;28;20234;-69
2021/09/04 08:21:24;;;;;;;9.13;6.43;;;;;;;22.06;68.56;97611.25;4982396;28;20230;-69
2021/09/04 08:23:50;;;;;;;7.80;7.00;;;;;;;22.13;68.59;97624.28;4981268;28;20277;-68
2021/09/04 08:26:17;;;;;;;8.73;6.97;;;;;;;22.14;68.92;97623.44;4980255;28;20321;-69
2021/09/04 08:28:43;;;;;;;9.50;7.10;;;;;;;21.93;68.46;97586.16;4966257;28;20203;-69
2021/09/04 08:31:10;;;;;;;7.27;6.57;;;;;;;22.12;67.78;97622.56;4980061;28;20239;-70
2021/09/04 08:33:37;;;;;;;10.47;7.20;;;;;;;22.05;67.92;97617.22;4984984;28;21021;-70
2021/09/04 08:36:03;;;;;;;10.03;7.10;;;;;;;22.14;67.90;97638.78;4985302;28;20253;-69
2021/09/04 08:38:30;;;;;;;7.40;6.67;;;;;;;22.16;67.49;97638.84;4984776;28;21023;-69
2021/09/04 08:40:57;;;;;;;10.40;6.83;;;;;;;22.15;67.60;97634.56;4983120;28;20239;-69
2021/09/04 08:43:23;;;;;;;9.83;7.13;;;;;;;21.97;67.70;97604.19;4982604;28;20226;-69
2021/09/04 08:45:50;;;;;;;9.60;6.97;;;;;;;22.16;67.47;97631.16;4985666;28;20227;-69
2021/09/04 08:48:19;;;;;;;8.07;6.60;;;;;;;21.92;67.17;97595.50;4986490;28;20254;-69
2021/09/04 08:50:46;;;;;;;10.43;7.13;;;;;;;22.13;66.96;97631.94;4969498;28;20296;-70
2021/09/04 08:53:12;;;;;;;8.57;7.17;;;;;;;22.12;67.02;97627.66;4981611;28;20649;-69
2021/09/04 08:55:40;;;;;;;7.60;6.80;;;;;;;22.11;66.89;97628.47;4983045;28;20245;-70
2021/09/04 08:58:08;;;;;;;8.87;6.23;;;;;;;22.10;66.98;97629.31;4976354;28;20293;-69
2021/09/04 09:00:38;;;;;;;7.30;6.60;;;;;;;22.03;67.00;97616.28;4984679;28;20679;-69
2021/09/04 09:03:06;;;;;;;7.83;6.83;;;;;;;22.01;67.19;97616.25;4966844;28;20226;-69
2021/09/04 09:05:41;;;;;;;7.93;6.37;;;;;;;21.83;67.38;97577.34;4967103;28;20235;-69
2021/09/04 09:08:14;;;;;;;9.70;6.70;;;;;;;22.04;67.19;97612.91;4974076;28;20268;-70
2021/09/04 09:10:40;;;;;;;8.67;6.57;;;;;;;22.10;67.37;97629.31;4984546;28;20250;-70
2021/09/04 09:13:07;;;;;;;7.50;6.67;;;;;;;22.11;67.39;97633.59;4982699;28;20235;-70
2021/09/04 09:15:36;;;;;;;9.07;6.93;;;;;;;22.12;67.83;97626.78;4980817;28;20286;-70
2021/09/04 09:18:10;;;;;;;7.33;6.20;;;;;;;22.12;67.92;97639.59;4984496;28;20765;-68
2021/09/04 09:20:38;;;;;;;7.07;6.33;;;;;;;22.08;68.09;97620.72;4975515;28;20543;-70
2021/09/04 09:23:06;;;;;;;7.17;6.40;;;;;;;21.98;68.29;97598.25;4978263;28;20272;-69
2021/09/04 09:25:35;;;;;;;8.53;6.50;;;;;;;22.10;68.37;97625.88;4981238;28;20716;-69
2021/09/04 09:28:12;;;;;;;8.07;6.57;;;;;;;22.10;68.35;97625.88;4977155;28;20243;-69
2021/09/04 09:30:42;;;;;;;8.33;6.90;;;;;;;22.09;68.41;97621.59;4980859;28;20298;-67
2021/09/04 09:33:11;;;;;;;7.47;6.10;;;;;;;22.09;68.78;97621.59;4983802;28;20236;-69
2021/09/04 09:35:56;;;;;;;7.17;6.47;;;;;;;22.09;68.71;97621.59;4979149;28;20203;-69
2021/09/04 09:38:27;;;;;;;6.93;6.30;;;;;;;22.09;68.96;97619.03;4984570;28;20750;-69
2021/09/04 09:40:54;;;;;;;10.50;6.73;;;;;;;22.09;68.99;97617.34;4958027;28;20801;-69
2021/09/04 09:43:26;;;;;;;6.53;5.93;;;;;;;22.04;69.03;97612.91;4980242;28;20262;-67
2021/09/04 09:45:57;;;;;;;7.20;6.50;;;;;;;22.09;69.16;97614.78;4957091;28;20312;-70
2021/09/04 09:48:25;;;;;;;7.67;6.00;;;;;;;22.10;69.30;97618.19;4973837;28;20239;-70
2021/09/04 09:50:53;;;;;;;8.10;6.60;;;;;;;22.10;69.17;97615.63;4983469;28;20249;-70
2021/09/04 09:53:21;;;;;;;9.57;6.60;;;;;;;22.10;68.99;97616.50;4979524;28;20674;-70
2021/09/04 09:55:48;;;;;;;7.43;6.17;;;;;;;22.10;69.30;97611.38;4983639;28;20238;-70
2021/09/04 09:58:15;;;;;;;8.63;6.93;;;;;;;22.09;69.24;97612.22;4977386;28;20258;-69
2021/09/04 10:00:42;;;;;;;7.43;6.63;;;;;;;22.02;69.35;97594.94;4978893;28;20214;-69
2021/09/04 10:03:10;;;;;;;11.97;6.60;;;;;;;22.12;69.50;97608.88;4970777;28;20717;-69
2021/09/04 10:05:37;;;;;;;6.60;6.00;;;;;;;21.91;69.70;97573.31;4981242;28;20314;-69
2021/09/04 10:08:04;;;;;;;9.77;6.03;;;;;;;21.98;69.60;97582.91;4984938;28;20668;-70
2021/09/04 10:10:32;;;;;;;6.80;6.10;;;;;;;21.16;69.51;97438.94;4966664;28;20311;-69
2021/09/04 10:12:59;;;;;;;9.20;6.57;;;;;;;22.11;69.58;97604.59;4985351;28;20762;-70
2021/09/04 10:15:30;;;;;;;10.07;7.20;;;;;;;21.97;69.64;97572.63;4982129;28;20207;-68
2021/09/04 10:17:58;;;;;;;6.37;5.70;;;;;;;22.00;69.68;97580.38;4960488;28;20243;-69
2021/09/04 10:20:25;;;;;;;7.20;6.50;;;;;;;22.09;69.36;97591.75;4981408;28;20234;-69
2021/09/04 10:23:11;;;;;;;8.63;6.37;;;;;;;22.11;69.41;97591.78;5085608;22;20222;-65
2021/09/04 10:25:37;;;;;;;6.83;6.13;;;;;;;22.10;69.35;97583.22;4979218;28;20317;-66
2021/09/04 10:28:04;;;;;;;6.73;6.00;;;;;;;22.11;69.41;97590.06;5007410;28;20284;-66
2021/09/04 10:30:38;;;;;;;8.47;6.67;;;;;;;22.08;69.76;97584.03;4986559;28;20656;-64
2021/09/04 10:33:10;;;;;;;7.03;6.27;;;;;;;22.13;69.63;97595.25;4988690;28;20710;-66
2021/09/04 10:35:57;;;;;;;7.67;6.47;;;;;;;22.13;69.57;97585.00;5011317;28;20249;-66
2021/09/04 10:38:28;;;;;;;6.47;5.87;;;;;;;22.13;69.67;97590.13;5008263;28;20573;-65
2021/09/04 10:41:13;;;;;;;8.43;6.87;;;;;;;22.13;69.64;97590.13;5015299;28;20702;-66
2021/09/04 10:43:43;;;;;;;11.10;7.03;;;;;;;22.14;69.53;97589.31;5011043;28;20272;-66
2021/09/04 10:46:11;;;;;;;7.77;5.70;;;;;;;22.15;69.68;97591.91;5003962;28;20309;-66
2021/09/04 10:48:38;;;;;;;8.50;6.43;;;;;;;22.14;69.50;97585.03;5011865;28;20249;-65
2021/09/04 10:51:09;;;;;;;7.10;6.40;;;;;;;22.14;69.51;97584.19;5012416;28;20284;-66
2021/09/04 10:53:42;;;;;;;9.03;6.17;;;;;;;22.14;69.40;97581.63;5012242;28;20313;-66
2021/09/04 10:56:25;;;;;;;7.97;6.30;;;;;;;22.14;69.47;97574.81;5007838;28;20737;-66
2021/09/04 10:58:52;;;;;;;7.93;6.30;;;;;;;22.13;69.58;97574.75;5012826;28;20609;-66
2021/09/04 11:01:38;;;;;;;7.67;6.40;;;;;;;22.13;69.44;97574.75;5011146;28;20731;-66
2021/09/04 11:04:06;;;;;;;6.93;6.23;;;;;;;22.13;69.44;97572.19;5014902;28;20285;-66
2021/09/04 11:06:32;;;;;;;9.80;6.33;;;;;;;22.12;69.42;97573.03;5016014;28;20272;-66
2021/09/04 11:08:59;;;;;;;6.70;5.77;;;;;;;22.12;69.76;97567.91;5013536;28;20281;-66
2021/09/04 11:11:39;;;;;;;8.07;6.13;;;;;;;22.13;69.56;97569.66;5010290;28;20772;-66
2021/09/04 11:14:23;;;;;;;6.83;6.13;;;;;;;22.13;69.59;97569.66;5013659;28;20311;-66
2021/09/04 11:16:51;;;;;;;6.97;6.07;;;;;;;22.13;69.73;97574.75;5011255;28;20245;-63
2021/09/04 11:19:28;;;;;;;6.73;5.70;;;;;;;22.14;69.77;97564.56;5011458;28;20313;-66
2021/09/04 11:22:10;;;;;;;8.93;5.90;;;;;;;21.97;69.73;97535.09;5014571;28;20232;-65
2021/09/04 11:24:41;;;;;;;7.20;6.20;;;;;;;22.14;69.84;97561.16;5014253;28;20269;-66
2021/09/04 11:27:15;;;;;;;8.30;6.40;;;;;;;22.15;70.00;97565.44;5004551;28;20248;-66
2021/09/04 11:29:51;;;;;;;7.57;6.10;;;;;;;22.15;69.85;97568.88;5030912;28;20203;-66
2021/09/04 11:32:25;;;;;;;7.67;6.53;;;;;;;22.15;69.70;97565.44;5004493;28;20202;-66
2021/09/04 11:35:10;;;;;;;6.40;5.80;;;;;;;22.16;69.90;97567.16;5012403;28;20352;-66